createdAt,value
2023-03-01T00:00:42.848Z,99.70
2023-03-01T00:01:46.842Z,99.70
2023-03-01T00:02:52.807Z,99.60
2023-03-01T00:03:57.618Z,99.60
2023-03-01T00:05:00.531Z,99.50
2023-03-01T00:06:05.179Z,99.60
2023-03-01T00:07:08.385Z,99.60
2023-03-01T00:08:12.055Z,99.60
2023-03-01T00:09:14.907Z,99.60
2023-03-01T00:10:19.115Z,99.70
2023-03-01T00:11:24.785Z,99.50
2023-03-01T00:12:28.903Z,99.70
2023-03-01T00:13:33.848Z,99.60
2023-03-01T00:14:38.267Z,99.50
2023-03-01T00:15:41.656Z,99.60
2023-03-01T00:16:46.661Z,99.70
2023-03-01T00:17:49.554Z,99.70
2023-03-01T00:18:55.696Z,99.70
2023-03-01T00:19:59.271Z,99.80
2023-03-01T00:21:02.519Z,99.80
2023-03-01T00:22:07.834Z,99.90
2023-03-01T00:23:10.599Z,99.70
2023-03-01T00:24:14.176Z,99.60
2023-03-01T00:25:18.717Z,99.70
2023-03-01T00:26:32.298Z,99.70
2023-03-01T00:27:34.898Z,99.70
2023-03-01T00:28:37.978Z,99.80
2023-03-01T00:29:41.772Z,99.60
2023-03-01T00:30:44.665Z,99.70
2023-03-01T00:31:50.967Z,99.80
2023-03-01T00:32:56.718Z,99.80
2023-03-01T00:34:05.074Z,99.80
2023-03-01T00:35:08.164Z,99.90
2023-03-01T00:36:14.153Z,99.90
2023-03-01T00:37:19.192Z,99.80
2023-03-01T00:38:22.578Z,99.90
2023-03-01T00:39:25.322Z,99.90
2023-03-01T00:40:29.885Z,99.70
2023-03-01T00:41:32.844Z,99.70
2023-03-01T00:42:36.530Z,99.70
2023-03-01T00:43:39.117Z,99.80
2023-03-01T00:44:45.217Z,99.70
2023-03-01T00:45:47.833Z,99.90
2023-03-01T00:46:55.803Z,99.80
2023-03-01T00:47:58.868Z,99.80
2023-03-01T00:49:11.457Z,99.80
2023-03-01T00:50:14.202Z,99.90
2023-03-01T00:51:20.472Z,99.90
2023-03-01T00:52:23.362Z,99.90
2023-03-01T00:53:29.259Z,99.90
2023-03-01T00:54:31.563Z,99.90
2023-03-01T00:55:35.447Z,99.90
2023-03-01T00:56:41.930Z,99.90
2023-03-01T00:57:44.573Z,99.90
2023-03-01T00:58:48.314Z,99.90
2023-03-01T00:59:53.424Z,99.90
2023-03-01T01:00:57.287Z,99.90
2023-03-01T01:02:00.292Z,99.90
2023-03-01T01:03:06.210Z,99.90
2023-03-01T01:04:12.146Z,99.90
2023-03-01T01:05:22.045Z,99.90
2023-03-01T01:06:30.359Z,99.90
2023-03-01T01:07:34.099Z,99.80
2023-03-01T01:08:36.794Z,99.80
2023-03-01T01:09:41.060Z,99.90
2023-03-01T01:10:45.040Z,99.80
2023-03-01T01:11:51.347Z,99.90
2023-03-01T01:12:54.118Z,99.70
2023-03-01T01:13:59.489Z,99.90
2023-03-01T01:15:02.733Z,99.70
2023-03-01T01:16:07.238Z,99.80
2023-03-01T01:17:10.379Z,99.90
2023-03-01T01:18:14.253Z,99.80
2023-03-01T01:19:19.138Z,99.80
2023-03-01T01:20:23.493Z,99.90
2023-03-01T01:21:27.229Z,99.80
2023-03-01T01:22:34.151Z,99.80
2023-03-01T01:23:42.475Z,99.80
2023-03-01T01:24:46.140Z,99.80
2023-03-01T01:25:49.001Z,99.90
2023-03-01T01:26:54.315Z,99.90
2023-03-01T01:27:56.971Z,99.90
2023-03-01T01:29:02.043Z,99.80
2023-03-01T01:30:06.534Z,99.90
2023-03-01T01:31:11.298Z,99.80
2023-03-01T01:32:17.088Z,99.90
2023-03-01T01:33:19.913Z,99.80
2023-03-01T01:34:25.202Z,99.80
2023-03-01T01:35:28.931Z,99.80
2023-03-01T01:36:33.337Z,99.80
2023-03-01T01:37:36.027Z,99.80
2023-03-01T01:38:41.025Z,99.80
2023-03-01T01:39:43.620Z,99.80
2023-03-01T01:40:50.119Z,99.80
2023-03-01T01:41:54.016Z,99.70
2023-03-01T01:42:57.538Z,99.70
2023-03-01T01:44:20.161Z,99.60
2023-03-01T01:45:31.473Z,99.60
2023-03-01T01:46:39.375Z,99.70
2023-03-01T01:47:42.390Z,99.90
2023-03-01T01:48:51.685Z,99.90
2023-03-01T01:50:00.466Z,99.90
2023-03-01T01:51:03.877Z,99.90
2023-03-01T01:52:15.190Z,99.90
2023-03-01T01:53:21.283Z,99.90
2023-03-01T01:54:30.473Z,99.90
2023-03-01T01:55:36.489Z,99.90
2023-03-01T01:56:46.123Z,99.90
2023-03-01T01:57:52.271Z,99.90
2023-03-01T01:58:58.005Z,99.90
2023-03-01T02:00:06.777Z,99.90
2023-03-01T02:01:19.632Z,99.90
2023-03-01T02:02:22.853Z,99.90
2023-03-01T02:03:34.454Z,99.90
2023-03-01T02:04:37.475Z,99.90
2023-03-01T02:05:55.206Z,99.90
2023-03-01T02:07:07.862Z,99.90
2023-03-01T02:08:15.693Z,99.90
2023-03-01T02:09:23.077Z,99.90
2023-03-01T02:10:31.206Z,99.90
2023-03-01T02:11:38.716Z,99.90
2023-03-01T02:12:43.202Z,99.90
2023-03-01T02:13:50.117Z,99.90
2023-03-01T02:14:53.755Z,99.90
2023-03-01T02:15:56.609Z,99.90
2023-03-01T02:17:00.639Z,99.90
2023-03-01T02:18:04.877Z,99.90
2023-03-01T02:19:15.616Z,99.90
2023-03-01T02:20:31.178Z,99.90
2023-03-01T02:21:54.168Z,99.90
2023-03-01T02:22:57.221Z,99.90
2023-03-01T02:24:08.215Z,99.90
2023-03-01T02:25:27.713Z,99.90
2023-03-01T02:26:42.939Z,99.90
2023-03-01T02:27:56.012Z,99.90
2023-03-01T02:29:01.964Z,99.90
2023-03-01T02:30:05.335Z,99.90
2023-03-01T02:31:29.313Z,99.90
2023-03-01T02:32:34.678Z,99.90
2023-03-01T02:33:42.123Z,99.90
2023-03-01T02:34:46.655Z,99.90
2023-03-01T02:35:53.829Z,99.90
2023-03-01T02:37:05.865Z,99.90
2023-03-01T02:38:10.615Z,99.90
2023-03-01T02:39:22.324Z,99.90
2023-03-01T02:40:31.513Z,99.90
2023-03-01T02:41:39.598Z,99.90
2023-03-01T02:42:51.183Z,99.90
2023-03-01T02:43:55.447Z,99.90
2023-03-01T02:44:59.509Z,99.90
2023-03-01T02:46:07.562Z,99.90
2023-03-01T02:47:10.778Z,99.90
2023-03-01T02:48:14.171Z,99.90
2023-03-01T02:49:30.225Z,99.90
2023-03-01T02:51:04.934Z,99.90
2023-03-01T02:52:41.115Z,99.90
2023-03-01T02:54:00.899Z,99.90
2023-03-01T02:55:08.578Z,99.90
2023-03-01T02:56:14.199Z,99.90
2023-03-01T02:57:19.775Z,99.90
2023-03-01T02:58:22.919Z,99.90
2023-03-01T02:59:32.750Z,99.90
2023-03-01T03:00:41.303Z,99.90
2023-03-01T03:01:46.501Z,99.90
2023-03-01T03:02:52.023Z,99.90
2023-03-01T03:03:56.820Z,99.90
2023-03-01T03:04:59.267Z,99.90
2023-03-01T03:06:03.237Z,99.90
2023-03-01T03:07:06.650Z,99.90
2023-03-01T03:08:12.230Z,99.90
2023-03-01T03:09:18.036Z,99.90
2023-03-01T03:10:27.161Z,99.90
2023-03-01T03:11:30.551Z,99.90
2023-03-01T03:12:35.156Z,99.90
2023-03-01T03:13:38.208Z,99.90
2023-03-01T03:14:41.824Z,99.90
2023-03-01T03:15:45.996Z,99.90
2023-03-01T03:16:51.332Z,99.90
2023-03-01T03:17:55.572Z,99.90
2023-03-01T03:19:06.212Z,99.90
2023-03-01T03:20:12.632Z,99.90
2023-03-01T03:21:22.156Z,99.90
2023-03-01T03:22:32.856Z,99.90
2023-03-01T03:23:37.328Z,99.90
2023-03-01T03:24:40.083Z,99.90
2023-03-01T03:25:46.252Z,99.90
2023-03-01T03:26:48.840Z,99.90
2023-03-01T03:27:57.721Z,99.90
2023-03-01T03:29:00.583Z,99.90
2023-03-01T03:30:07.069Z,99.90
2023-03-01T03:31:30.943Z,99.90
2023-03-01T03:32:34.167Z,99.90
2023-03-01T03:33:37.975Z,99.90
2023-03-01T03:34:41.612Z,99.90
2023-03-01T03:35:46.550Z,99.90
2023-03-01T03:36:50.277Z,99.90
2023-03-01T03:38:04.706Z,99.90
2023-03-01T03:39:08.298Z,99.90
2023-03-01T03:40:16.594Z,99.90
2023-03-01T03:41:23.881Z,99.90
2023-03-01T03:42:26.317Z,99.90
2023-03-01T03:43:30.459Z,99.90
2023-03-01T03:44:32.943Z,99.90
2023-03-01T03:45:36.834Z,99.90
2023-03-01T03:46:42.041Z,99.90
2023-03-01T03:47:45.015Z,99.90
2023-03-01T03:48:50.631Z,99.90
2023-03-01T03:49:55.741Z,99.90
2023-03-01T03:51:01.079Z,99.90
2023-03-01T03:52:03.625Z,99.90
2023-03-01T03:53:11.407Z,99.90
2023-03-01T03:54:19.761Z,99.90
2023-03-01T03:55:23.421Z,99.90
2023-03-01T03:56:28.632Z,99.90
2023-03-01T03:57:31.796Z,99.90
2023-03-01T03:58:35.739Z,99.90
2023-03-01T03:59:38.145Z,99.90
2023-03-01T04:00:44.294Z,99.90
2023-03-01T04:01:51.925Z,99.70
2023-03-01T04:02:57.562Z,99.80
2023-03-01T04:04:05.349Z,99.90
2023-03-01T04:05:10.417Z,99.90
2023-03-01T04:06:14.800Z,99.90
2023-03-01T04:07:17.568Z,99.90
2023-03-01T04:08:22.343Z,99.90
2023-03-01T04:09:25.191Z,99.90
2023-03-01T04:10:34.841Z,99.80
2023-03-01T04:11:41.262Z,99.80
2023-03-01T04:12:45.202Z,99.80
2023-03-01T04:13:49.088Z,99.60
2023-03-01T04:14:53.916Z,99.70
2023-03-01T04:15:59.474Z,99.80
2023-03-01T04:17:06.356Z,99.80
2023-03-01T04:18:10.869Z,99.80
2023-03-01T04:19:16.457Z,99.70
2023-03-01T04:20:25.787Z,99.70
2023-03-01T04:21:29.508Z,99.70
2023-03-01T04:22:33.169Z,99.80
2023-03-01T04:23:38.587Z,99.80
2023-03-01T04:24:43.404Z,99.80
2023-03-01T04:25:54.762Z,99.80
2023-03-01T04:26:58.570Z,99.80
2023-03-01T04:28:01.374Z,99.70
2023-03-01T04:29:05.958Z,99.70
2023-03-01T04:30:10.957Z,99.70
2023-03-01T04:31:18.535Z,99.70
2023-03-01T04:32:22.780Z,99.70
2023-03-01T04:33:29.464Z,99.60
2023-03-01T04:34:32.075Z,99.70
2023-03-01T04:35:38.154Z,99.70
2023-03-01T04:36:41.307Z,99.80
2023-03-01T04:37:47.913Z,99.80
2023-03-01T04:38:51.596Z,99.80
2023-03-01T04:39:54.488Z,99.80
2023-03-01T04:40:58.605Z,99.80
2023-03-01T04:42:01.352Z,99.60
2023-03-01T04:43:06.082Z,99.70
2023-03-01T04:44:10.266Z,99.80
2023-03-01T04:45:15.168Z,99.60
2023-03-01T04:46:21.071Z,99.70
2023-03-01T04:47:29.046Z,99.90
2023-03-01T04:48:33.061Z,99.90
2023-03-01T04:49:38.424Z,99.90
2023-03-01T04:50:43.502Z,99.80
2023-03-01T04:51:47.566Z,99.90
2023-03-01T04:52:50.627Z,99.90
2023-03-01T04:53:54.304Z,99.90
2023-03-01T04:54:59.037Z,99.90
2023-03-01T04:56:02.874Z,99.90
2023-03-01T04:57:05.703Z,99.90
2023-03-01T04:58:09.049Z,99.90
2023-03-01T04:59:13.681Z,99.90
2023-03-01T05:00:24.173Z,99.90
2023-03-01T05:01:26.703Z,99.90
2023-03-01T05:02:31.876Z,99.90
2023-03-01T05:03:34.398Z,99.90
2023-03-01T05:04:41.814Z,99.90
2023-03-01T05:05:46.622Z,99.90
2023-03-01T05:06:54.608Z,99.90
2023-03-01T05:08:02.133Z,99.90
2023-03-01T05:09:07.695Z,99.90
2023-03-01T05:10:13.632Z,99.90
2023-03-01T05:11:17.404Z,99.90
2023-03-01T05:12:19.912Z,99.90
2023-03-01T05:13:24.702Z,99.90
2023-03-01T05:14:27.556Z,99.90
2023-03-01T05:15:33.726Z,99.90
2023-03-01T05:16:38.895Z,99.90
2023-03-01T05:17:45.729Z,99.90
2023-03-01T05:18:51.987Z,99.90
2023-03-01T05:19:56.815Z,99.90
2023-03-01T05:21:06.712Z,99.90
2023-03-01T05:22:09.287Z,99.90
2023-03-01T05:23:15.174Z,99.90
2023-03-01T05:24:18.003Z,99.90
2023-03-01T05:25:22.494Z,99.90
2023-03-01T05:26:29.712Z,99.90
2023-03-01T05:27:33.995Z,99.90
2023-03-01T05:28:37.609Z,99.90
2023-03-01T05:29:50.610Z,99.90
2023-03-01T05:30:53.849Z,99.90
2023-03-01T05:32:00.458Z,99.90
2023-03-01T05:33:04.768Z,99.90
2023-03-01T05:34:10.111Z,99.90
2023-03-01T05:35:14.359Z,99.90
2023-03-01T05:36:21.091Z,99.90
2023-03-01T05:37:25.927Z,99.90
2023-03-01T05:38:29.613Z,99.90
2023-03-01T05:39:32.655Z,99.90
2023-03-01T05:40:37.028Z,99.80
2023-03-01T05:41:39.804Z,99.90
2023-03-01T05:42:46.504Z,99.90
2023-03-01T05:43:49.183Z,99.90
2023-03-01T05:44:54.863Z,99.90
2023-03-01T05:46:01.922Z,99.90
2023-03-01T05:47:05.924Z,99.90
2023-03-01T05:48:15.766Z,99.90
2023-03-01T05:49:19.778Z,99.80
2023-03-01T05:50:27.907Z,99.70
2023-03-01T05:51:30.599Z,99.70
2023-03-01T05:52:37.368Z,99.70
2023-03-01T05:53:39.969Z,99.70
2023-03-01T05:54:45.959Z,99.70
2023-03-01T05:55:50.993Z,99.70
2023-03-01T05:56:54.849Z,99.40
2023-03-01T05:58:00.093Z,99.50
2023-03-01T05:59:06.020Z,99.50
2023-03-01T06:00:10.163Z,99.60
2023-03-01T06:01:16.541Z,99.50
2023-03-01T06:02:19.706Z,99.50
2023-03-01T06:03:25.000Z,99.50
2023-03-01T06:04:27.691Z,99.60
2023-03-01T06:05:34.251Z,99.50
2023-03-01T06:06:38.564Z,99.70
2023-03-01T06:07:43.185Z,99.30
2023-03-01T06:08:47.102Z,99.00
2023-03-01T06:09:53.608Z,99.10
2023-03-01T06:10:58.995Z,99.30
2023-03-01T06:12:07.085Z,99.20
2023-03-01T06:13:13.384Z,99.10
2023-03-01T06:14:16.612Z,98.70
2023-03-01T06:15:27.243Z,98.80
2023-03-01T06:16:30.379Z,98.80
2023-03-01T06:17:38.988Z,98.70
2023-03-01T06:18:43.121Z,98.60
2023-03-01T06:19:48.535Z,98.50
2023-03-01T06:20:56.247Z,98.40
2023-03-01T06:21:58.723Z,98.30
2023-03-01T06:23:02.648Z,98.20
2023-03-01T06:24:07.065Z,98.00
2023-03-01T06:25:13.567Z,98.00
2023-03-01T06:26:18.197Z,97.90
2023-03-01T06:27:25.733Z,97.90
2023-03-01T06:28:28.674Z,97.80
2023-03-01T06:29:32.410Z,97.70
2023-03-01T06:30:36.231Z,97.50
2023-03-01T06:31:42.111Z,97.30
2023-03-01T06:32:45.526Z,97.20
2023-03-01T06:33:53.076Z,97.10
2023-03-01T06:34:55.760Z,96.70
2023-03-01T06:36:02.305Z,96.50
2023-03-01T06:37:06.291Z,96.10
2023-03-01T06:38:10.431Z,96.30
2023-03-01T06:39:13.063Z,95.90
2023-03-01T06:40:20.799Z,95.80
2023-03-01T06:41:23.554Z,95.80
2023-03-01T06:42:27.389Z,95.90
2023-03-01T06:43:32.503Z,95.70
2023-03-01T06:44:36.416Z,95.40
2023-03-01T06:45:39.497Z,95.20
2023-03-01T06:46:43.379Z,94.60
2023-03-01T06:47:46.542Z,94.80
2023-03-01T06:48:53.358Z,94.60
2023-03-01T06:49:56.581Z,94.50
2023-03-01T06:51:01.707Z,94.40
2023-03-01T06:52:05.014Z,94.00
2023-03-01T06:53:11.195Z,93.90
2023-03-01T06:54:14.939Z,93.50
2023-03-01T06:55:19.179Z,93.40
2023-03-01T06:56:23.117Z,92.90
2023-03-01T06:57:26.146Z,92.90
2023-03-01T06:58:30.264Z,92.70
2023-03-01T06:59:33.167Z,91.90
2023-03-01T07:00:36.852Z,91.80
2023-03-01T07:01:40.464Z,92.10
2023-03-01T07:02:44.120Z,92.00
2023-03-01T07:03:47.981Z,91.60
2023-03-01T07:04:55.667Z,91.30
2023-03-01T07:05:59.603Z,91.10
2023-03-01T07:07:02.945Z,90.70
2023-03-01T07:08:07.675Z,90.30
2023-03-01T07:09:10.478Z,89.80
2023-03-01T07:10:15.359Z,89.10
2023-03-01T07:11:18.114Z,88.00
2023-03-01T07:12:21.835Z,87.70
2023-03-01T07:13:24.798Z,90.40
2023-03-01T07:14:28.799Z,88.60
2023-03-01T07:15:34.037Z,85.10
2023-03-01T07:16:40.590Z,85.00
2023-03-01T07:17:45.581Z,85.40
2023-03-01T07:18:49.290Z,84.20
2023-03-01T07:19:56.806Z,83.20
2023-03-01T07:21:02.740Z,83.60
2023-03-01T07:22:08.803Z,82.00
2023-03-01T07:23:12.386Z,82.50
2023-03-01T07:24:15.279Z,82.00
2023-03-01T07:25:19.346Z,80.70
2023-03-01T07:26:21.956Z,79.40
2023-03-01T07:27:28.901Z,78.60
2023-03-01T07:28:32.218Z,77.60
2023-03-01T07:29:37.542Z,76.80
2023-03-01T07:30:41.611Z,75.90
2023-03-01T07:31:44.499Z,75.30
2023-03-01T07:32:48.643Z,74.70
2023-03-01T07:33:51.287Z,74.30
2023-03-01T07:34:58.950Z,72.60
2023-03-01T07:36:04.894Z,72.40
2023-03-01T07:37:07.499Z,72.40
2023-03-01T07:38:11.588Z,71.70
2023-03-01T07:39:14.026Z,71.20
2023-03-01T07:40:21.618Z,70.50
2023-03-01T07:41:24.934Z,70.10
2023-03-01T07:42:28.731Z,68.00
2023-03-01T07:43:32.268Z,69.30
2023-03-01T07:44:36.124Z,67.70
2023-03-01T07:45:39.747Z,68.70
2023-03-01T07:46:43.472Z,68.40
2023-03-01T07:47:47.204Z,67.20
2023-03-01T07:48:52.842Z,67.50
2023-03-01T07:49:56.864Z,67.20
2023-03-01T07:51:01.788Z,65.50
2023-03-01T07:52:05.719Z,67.10
2023-03-01T07:53:09.285Z,68.90
2023-03-01T07:54:16.689Z,66.80
2023-03-01T07:55:21.135Z,66.50
2023-03-01T07:56:24.568Z,65.40
2023-03-01T07:57:28.391Z,65.10
2023-03-01T07:58:31.275Z,63.80
2023-03-01T07:59:35.058Z,64.20
2023-03-01T08:00:38.663Z,63.50
2023-03-01T08:01:41.439Z,62.90
2023-03-01T08:02:44.812Z,62.00
2023-03-01T08:03:47.581Z,61.70
2023-03-01T08:04:53.159Z,61.10
2023-03-01T08:05:56.721Z,61.40
2023-03-01T08:07:02.104Z,60.80
2023-03-01T08:08:06.231Z,59.70
2023-03-01T08:09:11.771Z,59.60
2023-03-01T08:10:15.410Z,59.30
2023-03-01T08:11:18.071Z,59.20
2023-03-01T08:12:23.642Z,59.90
2023-03-01T08:13:26.514Z,59.00
2023-03-01T08:14:30.435Z,58.80
2023-03-01T08:15:33.286Z,58.80
2023-03-01T08:16:37.525Z,58.60
2023-03-01T08:17:41.924Z,58.90
2023-03-01T08:18:45.042Z,58.70
2023-03-01T08:19:51.387Z,58.60
2023-03-01T08:20:56.710Z,58.30
2023-03-01T08:22:02.131Z,58.00
2023-03-01T08:23:08.695Z,57.20
2023-03-01T08:24:12.997Z,56.90
2023-03-01T08:25:15.529Z,56.40
2023-03-01T08:26:22.245Z,56.50
2023-03-01T08:27:27.373Z,55.80
2023-03-01T08:28:30.016Z,55.80
2023-03-01T08:29:34.275Z,55.50
2023-03-01T08:30:37.182Z,56.10
2023-03-01T08:31:42.615Z,54.70
2023-03-01T08:32:45.473Z,54.70
2023-03-01T08:33:51.922Z,54.40
2023-03-01T08:34:54.679Z,54.30
2023-03-01T08:36:08.081Z,54.30
2023-03-01T08:37:13.392Z,54.10
2023-03-01T08:38:19.868Z,54.60
2023-03-01T08:39:23.608Z,54.00
2023-03-01T08:40:26.416Z,53.80
2023-03-01T08:41:31.106Z,53.60
2023-03-01T08:42:35.578Z,53.70
2023-03-01T08:43:38.484Z,53.90
2023-03-01T08:44:42.251Z,53.90
2023-03-01T08:45:46.622Z,53.80
2023-03-01T08:46:54.269Z,53.80
2023-03-01T08:49:06.136Z,52.90
2023-03-01T08:50:11.443Z,53.40
2023-03-01T08:51:18.390Z,69.10
2023-03-01T08:52:23.741Z,57.00
2023-03-01T08:53:26.712Z,55.20
2023-03-01T08:54:31.016Z,54.30
2023-03-01T08:55:33.444Z,54.10
2023-03-01T08:56:40.803Z,54.00
2023-03-01T08:57:43.341Z,54.00
2023-03-01T08:58:48.217Z,53.90
2023-03-01T08:59:52.016Z,53.90
2023-03-01T09:00:57.664Z,53.90
2023-03-01T09:02:01.779Z,53.80
2023-03-01T09:03:08.686Z,54.20
2023-03-01T09:04:12.588Z,54.00
2023-03-01T09:05:20.286Z,53.70
2023-03-01T09:06:23.276Z,53.80
2023-03-01T09:07:30.016Z,54.40
2023-03-01T09:08:40.480Z,55.30
2023-03-01T09:09:44.293Z,55.30
2023-03-01T09:10:48.326Z,55.90
2023-03-01T09:11:52.242Z,56.50
2023-03-01T09:12:56.200Z,56.80
2023-03-01T09:14:01.907Z,56.30
2023-03-01T09:15:05.249Z,56.30
2023-03-01T09:16:11.249Z,56.50
2023-03-01T09:17:17.556Z,56.70
2023-03-01T09:18:21.353Z,55.60
2023-03-01T09:19:27.312Z,55.90
2023-03-01T09:20:31.940Z,55.20
2023-03-01T09:21:41.210Z,54.70
2023-03-01T09:22:48.165Z,55.20
2023-03-01T09:23:54.551Z,55.30
2023-03-01T09:25:00.427Z,55.30
2023-03-01T09:26:04.449Z,54.90
2023-03-01T09:27:09.741Z,55.10
2023-03-01T09:28:27.641Z,54.70
2023-03-01T09:29:38.263Z,54.90
2023-03-01T09:30:41.095Z,54.80
2023-03-01T09:31:45.869Z,54.50
2023-03-01T09:32:49.664Z,54.40
2023-03-01T09:33:54.176Z,54.10
2023-03-01T09:35:05.839Z,54.10
2023-03-01T09:36:12.653Z,54.40
2023-03-01T09:37:16.576Z,54.60
2023-03-01T09:38:24.130Z,54.80
2023-03-01T09:39:29.089Z,54.90
2023-03-01T09:40:32.778Z,55.20
2023-03-01T09:41:49.563Z,55.20
2023-03-01T09:42:58.380Z,55.30
2023-03-01T09:44:09.529Z,55.50
2023-03-01T09:45:25.928Z,55.60
2023-03-01T09:46:35.163Z,55.90
2023-03-01T09:47:39.443Z,55.50
2023-03-01T09:48:46.198Z,56.30
2023-03-01T09:49:59.087Z,56.70
2023-03-01T09:51:14.950Z,57.30
2023-03-01T09:52:45.973Z,57.50
2023-03-01T09:54:17.316Z,57.60
2023-03-01T09:55:45.768Z,57.60
2023-03-01T09:57:12.122Z,58.10
2023-03-01T09:58:42.515Z,57.90
2023-03-01T10:00:18.732Z,57.60
2023-03-01T10:01:43.590Z,99.90
2023-03-01T10:03:17.451Z,91.90
2023-03-01T10:04:48.060Z,86.90
2023-03-01T10:06:35.074Z,86.40
2023-03-01T10:07:53.646Z,91.50
2023-03-01T10:09:04.582Z,90.60
2023-03-01T10:10:13.368Z,77.80
2023-03-01T10:11:27.255Z,70.00
2023-03-01T10:12:38.218Z,67.80
2023-03-01T10:13:54.937Z,76.50
2023-03-01T10:15:09.147Z,69.30
2023-03-01T10:16:22.372Z,60.70
2023-03-01T10:17:37.269Z,57.80
2023-03-01T10:18:43.421Z,56.40
2023-03-01T10:19:50.087Z,56.70
2023-03-01T10:20:58.468Z,58.10
2023-03-01T10:22:14.227Z,61.30
2023-03-01T10:23:17.342Z,58.00
2023-03-01T10:24:24.349Z,56.80
2023-03-01T10:25:49.870Z,58.70
2023-03-01T10:26:59.200Z,59.40
2023-03-01T10:28:09.813Z,58.70
2023-03-01T10:29:15.946Z,60.40
2023-03-01T10:30:24.858Z,62.20
2023-03-01T10:31:48.177Z,60.10
2023-03-01T10:32:56.469Z,59.10
2023-03-01T10:34:00.344Z,57.70
2023-03-01T10:35:04.417Z,60.90
2023-03-01T10:36:08.379Z,60.20
2023-03-01T10:37:14.547Z,82.10
2023-03-01T10:38:21.712Z,64.10
2023-03-01T10:39:29.217Z,62.70
2023-03-01T10:40:37.708Z,61.10
2023-03-01T10:41:58.148Z,68.70
2023-03-01T10:43:05.595Z,60.70
2023-03-01T10:44:38.034Z,60.50
2023-03-01T10:45:42.388Z,60.90
2023-03-01T10:46:51.206Z,61.20
2023-03-01T10:48:14.603Z,63.40
2023-03-01T10:49:20.607Z,62.50
2023-03-01T10:50:26.063Z,66.40
2023-03-01T10:51:32.764Z,59.30
2023-03-01T10:52:40.729Z,58.90
2023-03-01T10:53:50.286Z,59.20
2023-03-01T10:55:00.983Z,60.70
2023-03-01T10:56:11.414Z,81.10
2023-03-01T10:57:31.168Z,93.70
2023-03-01T10:58:38.152Z,94.70
2023-03-01T10:59:42.461Z,91.10
2023-03-01T11:00:52.303Z,86.40
2023-03-01T11:02:26.687Z,78.80
2023-03-01T11:03:39.283Z,75.60
2023-03-01T11:04:57.093Z,71.40
2023-03-01T11:06:27.424Z,58.70
2023-03-01T11:07:30.974Z,54.60
2023-03-01T11:08:43.558Z,53.70
2023-03-01T11:09:46.031Z,53.40
2023-03-01T11:10:51.099Z,53.50
2023-03-01T11:11:55.781Z,53.70
2023-03-01T11:13:11.382Z,54.10
2023-03-01T11:14:26.732Z,54.40
2023-03-01T11:15:31.555Z,54.30
2023-03-01T11:16:40.296Z,54.60
2023-03-01T11:17:54.601Z,54.40
2023-03-01T11:19:21.164Z,55.80
2023-03-01T11:20:33.328Z,55.60
2023-03-01T11:21:38.508Z,55.70
2023-03-01T11:22:51.167Z,58.30
2023-03-01T11:23:59.325Z,57.10
2023-03-01T11:25:10.338Z,56.80
2023-03-01T11:26:19.634Z,56.70
2023-03-01T11:27:27.869Z,56.60
2023-03-01T11:28:31.568Z,57.00
2023-03-01T11:29:48.112Z,57.60
2023-03-01T11:31:08.100Z,57.20
2023-03-01T11:32:17.105Z,57.60
2023-03-01T11:33:37.624Z,58.20
2023-03-01T11:34:48.614Z,58.60
2023-03-01T11:35:59.491Z,58.80
2023-03-01T11:37:12.730Z,58.60
2023-03-01T11:38:24.649Z,57.90
2023-03-01T11:39:34.028Z,58.10
2023-03-01T11:40:44.547Z,58.00
2023-03-01T11:42:18.175Z,58.20
2023-03-01T11:43:34.113Z,58.60
2023-03-01T11:44:47.406Z,59.90
2023-03-01T11:46:23.334Z,61.40
2023-03-01T11:47:51.513Z,61.80
2023-03-01T11:49:06.984Z,62.30
2023-03-01T11:50:21.634Z,61.40
2023-03-01T11:51:39.806Z,61.40
2023-03-01T11:52:59.504Z,61.10
2023-03-01T11:54:17.093Z,60.60
2023-03-01T11:55:32.823Z,60.30
2023-03-01T11:56:40.478Z,60.10
2023-03-01T11:58:08.719Z,60.40
2023-03-01T11:59:41.988Z,60.00
2023-03-01T12:01:11.270Z,59.80
2023-03-01T12:02:54.268Z,60.10
2023-03-01T12:04:29.058Z,59.70
2023-03-01T12:06:04.804Z,59.50
2023-03-01T12:07:19.443Z,60.60
2023-03-01T12:08:34.985Z,59.90
2023-03-01T12:10:00.009Z,60.20
2023-03-01T12:11:22.361Z,59.80
2023-03-01T12:12:40.820Z,59.80
2023-03-01T12:14:10.103Z,59.80
2023-03-01T12:15:54.722Z,59.60
2023-03-01T12:17:25.530Z,59.50
2023-03-01T12:18:49.828Z,59.40
2023-03-01T12:20:17.332Z,59.30
2023-03-01T12:21:35.152Z,59.70
2023-03-01T12:22:54.253Z,60.00
2023-03-01T12:24:45.467Z,60.20
2023-03-01T12:25:59.092Z,60.60
2023-03-01T12:27:23.822Z,60.50
2023-03-01T12:28:54.231Z,60.20
2023-03-01T12:30:19.296Z,59.80
2023-03-01T12:31:51.758Z,60.30
2023-03-01T12:33:11.409Z,60.40
2023-03-01T12:34:34.235Z,59.90
2023-03-01T12:35:59.218Z,60.60
2023-03-01T12:37:28.621Z,60.80
2023-03-01T12:38:47.025Z,61.00
2023-03-01T12:40:14.076Z,61.10
2023-03-01T12:41:43.916Z,61.00
2023-03-01T12:43:05.847Z,61.90
2023-03-01T12:44:40.049Z,62.40
2023-03-01T12:46:07.404Z,62.50
2023-03-01T12:47:25.736Z,62.50
2023-03-01T12:48:49.047Z,62.60
2023-03-01T12:49:58.363Z,62.40
2023-03-01T12:51:12.226Z,62.30
2023-03-01T12:52:25.741Z,62.30
2023-03-01T12:53:32.902Z,62.50
2023-03-01T12:54:39.478Z,63.30
2023-03-01T12:55:45.070Z,62.90
2023-03-01T12:56:53.748Z,63.00
2023-03-01T12:58:11.044Z,62.20
2023-03-01T12:59:21.458Z,61.60
2023-03-01T13:00:32.927Z,61.60
2023-03-01T13:01:47.830Z,62.10
2023-03-01T13:03:00.623Z,62.40
2023-03-01T13:04:33.834Z,62.90
2023-03-01T13:05:53.374Z,61.80
2023-03-01T13:07:20.931Z,62.70
2023-03-01T13:08:34.290Z,62.90
2023-03-01T13:09:45.779Z,63.00
2023-03-01T13:10:55.183Z,62.90
2023-03-01T13:11:57.905Z,62.50
2023-03-01T13:13:16.603Z,62.60
2023-03-01T13:14:47.756Z,62.80
2023-03-01T13:15:52.420Z,62.60
2023-03-01T13:16:56.997Z,62.70
2023-03-01T13:18:02.682Z,62.60
2023-03-01T13:19:16.806Z,63.20
2023-03-01T13:20:30.925Z,63.30
2023-03-01T13:21:37.994Z,63.70
2023-03-01T13:22:54.302Z,64.20
2023-03-01T13:24:00.296Z,64.20
2023-03-01T13:25:13.250Z,64.20
2023-03-01T13:26:19.381Z,64.30
2023-03-01T13:27:26.271Z,64.20
2023-03-01T13:29:03.236Z,64.10
2023-03-01T13:30:28.222Z,65.20
2023-03-01T13:32:05.201Z,67.00
2023-03-01T13:33:42.477Z,67.80
2023-03-01T13:34:55.277Z,67.00
2023-03-01T13:35:59.729Z,67.40
2023-03-01T13:37:21.748Z,67.40
2023-03-01T13:38:49.329Z,67.10
2023-03-01T13:39:52.512Z,66.60
2023-03-01T13:41:02.863Z,66.30
2023-03-01T13:42:27.431Z,66.10
2023-03-01T13:43:37.500Z,65.60
2023-03-01T13:44:45.640Z,65.00
2023-03-01T13:45:49.947Z,65.00
2023-03-01T13:47:01.897Z,65.00
2023-03-01T13:48:17.840Z,65.00
2023-03-01T13:49:27.375Z,64.80
2023-03-01T13:50:42.469Z,64.80
2023-03-01T13:51:50.297Z,65.40
2023-03-01T13:53:01.866Z,65.20
2023-03-01T13:54:13.011Z,64.50
2023-03-01T13:55:25.422Z,63.60
2023-03-01T13:56:36.058Z,63.70
2023-03-01T13:57:40.417Z,64.00
2023-03-01T13:58:51.141Z,63.80
2023-03-01T13:59:53.935Z,64.10
2023-03-01T14:01:00.847Z,64.20
2023-03-01T14:02:04.807Z,63.80
2023-03-01T14:03:16.877Z,64.80
2023-03-01T14:04:27.237Z,64.60
2023-03-01T14:05:31.352Z,64.00
2023-03-01T14:06:37.675Z,63.80
2023-03-01T14:07:42.889Z,63.80
2023-03-01T14:08:49.670Z,64.00
2023-03-01T14:09:56.458Z,63.90
2023-03-01T14:11:26.316Z,63.90
2023-03-01T14:12:45.381Z,65.20
2023-03-01T14:14:11.333Z,64.40
2023-03-01T14:15:25.074Z,65.20
2023-03-01T14:16:40.537Z,65.30
2023-03-01T14:18:02.337Z,65.20
2023-03-01T14:19:32.024Z,65.40
2023-03-01T14:20:44.131Z,65.50
2023-03-01T14:21:47.432Z,65.10
2023-03-01T14:22:55.450Z,65.80
2023-03-01T14:24:01.529Z,65.90
2023-03-01T14:25:18.853Z,65.70
2023-03-01T14:26:24.648Z,65.50
2023-03-01T14:27:34.185Z,65.40
2023-03-01T14:28:43.073Z,65.10
2023-03-01T14:29:56.717Z,65.10
2023-03-01T14:31:04.920Z,64.90
2023-03-01T14:32:13.490Z,65.20
2023-03-01T14:33:27.340Z,65.40
2023-03-01T14:34:32.619Z,65.20
2023-03-01T14:35:38.563Z,65.90
2023-03-01T14:36:45.492Z,66.80
2023-03-01T14:37:53.535Z,67.40
2023-03-01T14:39:00.702Z,67.70
2023-03-01T14:40:07.367Z,67.70
2023-03-01T14:41:16.656Z,67.60
2023-03-01T14:42:29.498Z,67.40
2023-03-01T14:43:35.040Z,67.60
2023-03-01T14:44:42.562Z,67.90